Lobo

Go HERE for most recent data if this page is not up to date.

Jump to table bottom
Date/Time Temp deg F RH % 24 Hr Snow (in) Snow Depth (in) H2O (in)
09/24 17:00 30.9 78 "NAN" "NAN" 0.00
09/24 16:00 30.8 79 "NAN" "NAN" 0.00
09/24 15:00 30.8 79 "NAN" "NAN" 0.00
09/24 14:00 30.4 90 "NAN" "NAN" 0.00
09/24 13:00 31.9 78 "NAN" "NAN" 0.00
09/24 12:00 32.2 67 "NAN" "NAN" 0.00
09/24 11:00 31.0 65 "NAN" "NAN" 0.00
09/24 10:00 30.1 82 "NAN" "NAN" 0.00
09/24 09:00 29.5 83 "NAN" "NAN" 0.00
09/24 08:00 29.1 90 "NAN" "NAN" 0.00
09/24 07:00 29.2 88 "NAN" "NAN" 0.00
09/24 06:00 28.7 97 "NAN" "NAN" 0.00
09/24 05:00 29.4 100 "NAN" "NAN" 0.00
09/24 04:00 29.6 100 "NAN" "NAN" 0.00
09/24 03:00 29.9 98 "NAN" "NAN" 0.00
09/24 02:00 31.3 93 "NAN" "NAN" 0.00
09/24 01:00 32.0 90 "NAN" "NAN" 0.00
09/24 00:00 32.6 85 "NAN" "NAN" 0.00
09/23 23:00 32.9 91 "NAN" "NAN" 0.00
09/23 22:00 33.1 94 "NAN" "NAN" 0.00
09/23 21:00 33.8 83 "NAN" "NAN" 0.00
09/23 20:00 32.7 87 "NAN" "NAN" 0.00
09/23 19:00 33.1 93 "NAN" "NAN" 0.00
09/23 18:00 35.5 94 "NAN" "NAN" 0.01
09/23 17:00 38.5 86 "NAN" "NAN" 0.00
09/23 16:00 41.4 60 "NAN" "NAN" 0.00
09/23 15:00 38.5 62 "NAN" "NAN" 0.00
09/23 14:00 39.3 83 "NAN" "NAN" 0.00
09/23 13:00 42.1 61 "NAN" "NAN" 0.00
09/23 12:00 43.1 57 "NAN" "NAN" 0.00
09/23 11:00 40.3 61 "NAN" "NAN" 0.00
09/23 10:00 39.4 62 "NAN" "NAN" 0.00
09/23 09:00 39.0 57 "NAN" "NAN" 0.00
09/23 08:00 39.3 54 "NAN" "NAN" 0.00
09/23 07:00 38.5 52 "NAN" "NAN" 0.00
09/23 06:00 40.9 47 "NAN" "NAN" 0.00
09/23 05:00 45.2 38 "NAN" "NAN" 0.00
09/23 04:00 46.8 24 "NAN" "NAN" 0.00
09/23 03:00 45.8 27 "NAN" "NAN" 0.00
09/23 02:00 45.3 33 "NAN" "NAN" 0.00
09/23 01:00 47.5 29 "NAN" "NAN" 0.00
09/23 00:00 49.2 25 "NAN" "NAN" 0.00
.